Time;durP1;ratioP1;P1;durP2;ratioP2;P2;SDS_P1;SDS_P2;PMS_P1;PMS_P2;Temp;Humidity;BMP_temperature;BMP_pressure;BME280_temperature;BME280_humidity;BME280_pressure;Samples;Min_cycle;Max_cycle;Signal;HPM_P1;HPM_P2
2022/09/04 00:02:15;;;;;;;2.63;2.43;;;18.90;99.90;;;;;;5034917;28;20481;-69
2022/09/04 00:05:35;;;;;;;2.30;2.10;;;18.90;99.90;;;;;;5035307;28;20444;-69
2022/09/04 00:08:22;;;;;;;3.23;2.63;;;18.90;99.90;;;;;;5013243;28;20518;-69
2022/09/04 00:10:55;;;;;;;2.70;2.03;;;18.90;99.90;;;;;;5033348;28;21026;-69
2022/09/04 00:13:29;;;;;;;2.43;2.23;;;18.80;99.90;;;;;;5034991;28;20492;-69
2022/09/04 00:16:08;;;;;;;2.17;1.97;;;18.80;99.90;;;;;;5034977;28;20405;-69
2022/09/04 00:18:48;;;;;;;2.57;2.37;;;18.80;99.90;;;;;;5034138;28;20382;-69
2022/09/04 00:21:20;;;;;;;5.23;2.30;;;18.80;99.90;;;;;;5034989;28;20484;-69
2022/09/04 00:23:59;;;;;;;2.93;2.27;;;18.70;99.90;;;;;;5034985;28;20929;-69
2022/09/04 00:26:49;;;;;;;2.23;2.03;;;18.70;99.90;;;;;;5034739;28;20471;-69
2022/09/04 00:29:21;;;;;;;4.90;2.77;;;18.70;99.90;;;;;;5033892;28;20398;-69
2022/09/04 00:31:57;;;;;;;3.17;2.40;;;18.60;99.90;;;;;;5031185;28;20456;-69
2022/09/04 00:34:44;;;;;;;3.50;2.30;;;18.50;99.90;;;;;;5020959;28;20759;-69
2022/09/04 00:37:17;;;;;;;2.03;1.93;;;18.50;99.90;;;;;;5033231;28;20412;-69
2022/09/04 00:39:56;;;;;;;1.97;1.87;;;18.50;99.90;;;;;;5034114;28;20845;-69
2022/09/04 00:42:43;;;;;;;2.67;2.47;;;18.50;99.90;;;;;;5034127;28;20398;-69
2022/09/04 00:45:21;;;;;;;2.50;2.30;;;18.50;99.90;;;;;;5033877;28;20394;-69
2022/09/04 00:48:05;;;;;;;4.67;2.57;;;18.40;99.90;;;;;;5033818;28;20405;-68
2022/09/04 00:50:40;;;;;;;3.40;1.93;;;18.30;99.90;;;;;;5033024;28;20472;-69
2022/09/04 00:53:16;;;;;;;2.57;2.37;;;18.40;99.90;;;;;;5013135;28;20777;-69
2022/09/04 00:55:53;;;;;;;3.00;2.70;;;18.30;99.90;;;;;;5014538;28;20391;-68
2022/09/04 00:58:36;;;;;;;1.83;1.73;;;18.30;99.90;;;;;;5014218;28;20415;-69
2022/09/04 01:01:02;;;;;;;3.80;2.70;;;18.30;99.90;;;;;;5013801;28;20794;-68
2022/09/04 01:04:12;;;;;;;4.17;2.47;;;18.30;99.90;;;;;;5014238;28;20414;-69
2022/09/04 01:06:45;;;;;;;3.07;2.80;;;18.20;99.90;;;;;;5013766;28;20398;-68
2022/09/04 01:09:41;;;;;;;3.80;3.20;;;18.10;99.90;;;;;;5014127;28;20442;-69
2022/09/04 01:12:31;;;;;;;3.20;2.37;;;18.10;99.90;;;;;;5014083;28;20439;-69
2022/09/04 01:15:13;;;;;;;3.43;3.17;;;18.20;99.90;;;;;;5014178;28;20394;-69
2022/09/04 01:17:52;;;;;;;3.17;2.83;;;18.20;99.90;;;;;;5014128;28;20372;-68
2022/09/04 01:20:47;;;;;;;2.73;2.53;;;18.10;99.90;;;;;;5013767;28;20423;-69
2022/09/04 01:23:35;;;;;;;3.63;3.27;;;18.00;99.90;;;;;;4998186;28;20453;-69
2022/09/04 01:26:38;;;;;;;2.80;2.60;;;18.00;99.90;;;;;;5013658;28;20438;-68
2022/09/04 01:29:40;;;;;;;3.57;3.27;;;18.10;99.90;;;;;;5023857;28;20441;-69
2022/09/04 01:32:13;;;;;;;3.33;2.80;;;18.10;99.90;;;;;;5032888;28;20441;-69
2022/09/04 01:35:02;;;;;;;3.17;2.87;;;18.10;99.90;;;;;;5033586;28;20382;-69
2022/09/04 01:37:54;;;;;;;6.23;3.90;;;18.00;99.90;;;;;;5032234;28;20422;-69
2022/09/04 01:40:45;;;;;;;3.40;3.10;;;17.90;99.90;;;;;;5033403;28;20457;-68
2022/09/04 01:43:17;;;;;;;6.13;3.60;;;18.00;99.90;;;;;;5033003;28;20488;-69
2022/09/04 01:46:18;;;;;;;2.97;2.73;;;17.90;99.90;;;;;;5033606;28;20808;-69
2022/09/04 01:48:43;;;;;;;3.77;2.90;;;17.90;99.90;;;;;;5033765;28;20515;-69
2022/09/04 01:53:42;;;;;;;4.60;4.00;;;17.80;99.90;;;;;;5029872;28;20688;-70
2022/09/04 01:56:24;;;;;;;3.37;3.07;;;17.70;99.90;;;;;;5031174;28;20423;-69
2022/09/04 01:59:29;;;;;;;5.00;4.50;;;17.70;99.90;;;;;;5032359;28;20382;-69
2022/09/04 02:02:28;;;;;;;4.97;3.40;;;17.70;99.90;;;;;;5018573;28;20429;-69
2022/09/04 02:05:19;;;;;;;4.63;4.23;;;17.70;99.90;;;;;;4978630;28;20401;-70
2022/09/04 02:07:53;;;;;;;5.47;3.50;;;17.80;99.90;;;;;;5032062;28;20425;-69
2022/09/04 02:10:30;;;;;;;4.30;3.90;;;17.80;99.90;;;;;;5031846;28;20441;-70
2022/09/04 02:13:21;;;;;;;4.17;3.50;;;17.80;99.90;;;;;;5031901;28;20540;-70
2022/09/04 02:16:04;;;;;;;4.93;4.00;;;17.90;99.90;;;;;;5031522;28;20899;-70
2022/09/04 02:18:43;;;;;;;5.73;4.17;;;17.80;99.90;;;;;;5031608;28;20378;-69
2022/09/04 02:21:39;;;;;;;4.27;3.90;;;17.80;99.90;;;;;;5031671;28;20410;-70
2022/09/04 02:24:38;;;;;;;4.87;4.47;;;17.80;99.90;;;;;;5032428;28;20390;-68
2022/09/04 02:27:30;;;;;;;4.63;4.23;;;17.80;99.90;;;;;;5030852;28;21029;-70
2022/09/04 02:30:06;;;;;;;3.87;3.57;;;17.80;99.90;;;;;;5025190;28;20441;-69
2022/09/04 02:33:02;;;;;;;4.23;3.83;;;17.70;99.90;;;;;;5031788;28;20441;-69
2022/09/04 02:35:42;;;;;;;3.80;3.50;;;17.70;99.90;;;;;;5031219;28;20424;-69
2022/09/04 02:38:11;;;;;;;7.33;4.27;;;17.70;99.90;;;;;;5032173;28;20391;-69
2022/09/04 02:40:58;;;;;;;7.00;3.87;;;17.70;99.90;;;;;;5031252;28;20447;-69
2022/09/04 02:43:34;;;;;;;4.40;3.57;;;17.70;99.90;;;;;;5033390;28;20421;-69
2022/09/04 02:46:29;;;;;;;4.70;4.13;;;17.60;99.90;;;;;;5035138;28;20493;-68
2022/09/04 02:49:25;;;;;;;3.87;3.47;;;17.60;99.90;;;;;;5034895;28;20382;-69
2022/09/04 02:52:09;;;;;;;4.77;4.33;;;17.50;99.90;;;;;;5034732;28;20483;-69
2022/09/04 02:55:09;;;;;;;4.90;3.93;;;17.40;99.90;;;;;;5035039;28;20383;-68
2022/09/04 02:57:59;;;;;;;4.53;4.13;;;17.40;99.90;;;;;;5034789;28;20402;-70
2022/09/04 03:00:56;;;;;;;4.37;4.00;;;17.40;99.90;;;;;;5035210;28;20454;-69
2022/09/04 03:03:45;;;;;;;4.10;3.70;;;17.40;99.90;;;;;;5034435;28;20504;-69
2022/09/04 03:06:21;;;;;;;4.10;3.80;;;17.40;99.90;;;;;;5034850;28;20469;-69
2022/09/04 03:08:57;;;;;;;3.83;3.50;;;17.40;99.90;;;;;;5034778;28;20834;-69
2022/09/04 03:11:33;;;;;;;4.03;3.63;;;17.50;99.90;;;;;;5034838;28;20934;-69
2022/09/04 03:14:33;;;;;;;5.33;4.10;;;17.40;99.90;;;;;;5034189;28;20447;-69
2022/09/04 03:17:09;;;;;;;4.43;3.97;;;17.40;99.90;;;;;;5022870;28;20406;-69
2022/09/04 03:19:50;;;;;;;4.97;4.57;;;17.30;99.90;;;;;;5033994;28;20399;-69
2022/09/04 03:22:34;;;;;;;6.57;3.60;;;17.30;99.90;;;;;;5034443;28;20820;-69
2022/09/04 03:25:09;;;;;;;4.47;4.07;;;17.20;99.90;;;;;;5034156;28;20394;-69
2022/09/04 03:27:35;;;;;;;3.50;3.20;;;17.30;99.90;;;;;;5024769;28;20393;-69
2022/09/04 03:30:12;;;;;;;3.97;3.53;;;17.30;99.90;;;;;;5034009;28;20942;-68
2022/09/04 03:32:56;;;;;;;6.00;3.93;;;17.40;99.90;;;;;;5032857;28;20563;-69
2022/09/04 03:35:36;;;;;;;3.07;2.87;;;17.40;99.90;;;;;;5034689;28;20882;-69
2022/09/04 03:38:39;;;;;;;3.30;3.10;;;17.40;99.90;;;;;;5034661;28;20413;-69
2022/09/04 03:41:15;;;;;;;4.30;3.67;;;17.40;99.90;;;;;;5034768;28;20490;-69
2022/09/04 03:43:46;;;;;;;4.20;3.50;;;17.30;99.90;;;;;;5035334;28;20392;-69
2022/09/04 03:46:19;;;;;;;4.07;3.67;;;17.40;99.90;;;;;;5036221;28;20871;-69
2022/09/04 03:49:09;;;;;;;6.20;3.17;;;17.30;99.90;;;;;;5036189;28;20450;-69
2022/09/04 03:52:08;;;;;;;3.67;3.37;;;17.40;99.90;;;;;;5033782;28;20479;-68
2022/09/04 03:55:04;;;;;;;4.23;3.83;;;17.40;99.90;;;;;;5033160;28;20408;-68
2022/09/04 03:57:45;;;;;;;3.80;3.50;;;17.40;99.90;;;;;;5033629;28;20421;-69
2022/09/04 04:00:18;;;;;;;3.50;3.20;;;17.40;99.90;;;;;;5033880;28;21105;-69
2022/09/04 04:02:53;;;;;;;5.93;5.00;;;17.40;99.90;;;;;;5013500;28;20429;-68
2022/09/04 04:05:35;;;;;;;3.60;3.30;;;17.30;99.90;;;;;;5014013;28;20847;-69
2022/09/04 04:08:28;;;;;;;4.07;3.53;;;17.30;99.90;;;;;;5014387;28;20718;-69
2022/09/04 04:11:28;;;;;;;4.90;4.23;;;17.30;99.90;;;;;;5013535;28;20445;-69
2022/09/04 04:14:14;;;;;;;4.77;3.77;;;17.10;99.90;;;;;;5013648;28;20390;-68
2022/09/04 04:17:01;;;;;;;3.23;2.93;;;17.10;99.90;;;;;;5013375;28;20387;-69
2022/09/04 04:19:36;;;;;;;4.27;3.80;;;17.10;99.90;;;;;;5013572;28;20445;-69
2022/09/04 04:22:35;;;;;;;3.63;3.33;;;17.10;99.90;;;;;;5013559;28;20451;-69
2022/09/04 04:25:32;;;;;;;4.30;3.33;;;17.10;99.90;;;;;;5013581;28;20830;-69
2022/09/04 04:28:19;;;;;;;3.97;3.67;;;17.10;99.90;;;;;;5007436;28;20920;-69
2022/09/04 04:30:53;;;;;;;3.83;3.43;;;17.10;99.90;;;;;;5015864;28;20462;-69
2022/09/04 04:33:41;;;;;;;4.20;3.80;;;17.10;99.90;;;;;;5032814;28;20883;-69
2022/09/04 04:36:26;;;;;;;5.40;3.60;;;17.10;99.90;;;;;;5032905;28;20421;-69
2022/09/04 04:39:20;;;;;;;3.90;3.60;;;17.10;99.90;;;;;;5013521;28;20781;-69
2022/09/04 04:42:04;;;;;;;3.80;3.40;;;17.10;99.90;;;;;;5009100;28;20540;-69
2022/09/04 04:48:17;;;;;;;2.93;2.70;;;17.00;99.90;;;;;;5020948;28;20495;-69
2022/09/04 04:50:58;;;;;;;3.63;3.30;;;17.10;99.90;;;;;;5032677;28;20973;-69
2022/09/04 04:53:28;;;;;;;2.70;2.50;;;17.00;99.90;;;;;;5031654;28;20840;-69
2022/09/04 04:56:12;;;;;;;7.50;3.50;;;17.10;99.90;;;;;;5033033;28;20872;-69
2022/09/04 04:59:19;;;;;;;4.63;4.23;;;17.10;99.90;;;;;;5033051;28;20435;-70
2022/09/04 05:02:09;;;;;;;4.90;3.97;;;17.10;99.90;;;;;;5032472;28;20441;-68
2022/09/04 05:04:56;;;;;;;7.23;5.20;;;17.00;99.90;;;;;;5032630;28;20471;-68
2022/09/04 05:07:33;;;;;;;5.73;5.07;;;17.00;99.90;;;;;;5032808;28;20414;-69
2022/09/04 05:10:22;;;;;;;5.23;4.73;;;17.00;99.90;;;;;;5032261;28;20701;-69
2022/09/04 05:13:05;;;;;;;5.77;5.20;;;17.10;99.90;;;;;;5032237;28;20736;-68
2022/09/04 05:15:53;;;;;;;5.40;4.90;;;17.10;99.90;;;;;;5031552;28;20514;-69
2022/09/04 05:18:30;;;;;;;4.40;4.00;;;17.10;99.90;;;;;;5024540;28;20425;-69
2022/09/04 05:21:06;;;;;;;6.57;4.77;;;17.10;99.90;;;;;;5032891;28;20403;-69
2022/09/04 05:23:55;;;;;;;4.77;4.37;;;17.10;99.90;;;;;;5032268;28;20441;-69
2022/09/04 05:26:42;;;;;;;4.67;4.37;;;17.10;99.90;;;;;;5032308;28;20393;-69
2022/09/04 05:29:30;;;;;;;5.87;5.33;;;17.10;99.90;;;;;;5032025;28;20388;-68
2022/09/04 05:32:22;;;;;;;6.73;5.37;;;17.10;99.90;;;;;;5032082;28;20487;-70
2022/09/04 05:35:34;;;;;;;5.40;4.57;;;17.10;99.90;;;;;;5011212;28;20555;-69
2022/09/04 05:38:27;;;;;;;5.00;4.60;;;17.20;99.90;;;;;;5013973;28;20411;-68
2022/09/04 05:41:22;;;;;;;4.93;4.50;;;17.20;99.90;;;;;;5030860;28;20479;-69
2022/09/04 05:43:52;;;;;;;7.03;4.30;;;17.20;99.90;;;;;;5031351;28;20424;-68
2022/09/04 05:46:37;;;;;;;4.27;3.97;;;17.30;99.90;;;;;;5031971;28;20393;-69
2022/09/04 05:49:02;;;;;;;4.33;4.03;;;17.30;99.90;;;;;;5031397;28;20474;-69
2022/09/04 05:51:58;;;;;;;6.60;4.43;;;17.30;99.90;;;;;;5032122;28;20938;-68
2022/09/04 05:54:42;;;;;;;5.23;4.73;;;17.30;99.90;;;;;;5030616;28;20178;-69
2022/09/04 05:57:21;;;;;;;4.03;3.63;;;17.40;99.90;;;;;;5031803;28;20832;-68
2022/09/04 06:00:05;;;;;;;4.00;3.40;;;17.40;99.90;;;;;;5032893;28;20390;-68
2022/09/04 06:02:46;;;;;;;4.50;4.10;;;17.40;99.90;;;;;;5033246;28;20436;-70
2022/09/04 06:05:49;;;;;;;4.40;4.10;;;17.50;99.90;;;;;;5032820;28;20461;-69
2022/09/04 06:08:24;;;;;;;4.20;3.90;;;17.50;99.90;;;;;;5032762;28;20463;-69
2022/09/04 06:11:24;;;;;;;3.60;3.03;;;17.60;99.90;;;;;;5031615;28;20454;-71
2022/09/04 06:14:21;;;;;;;4.20;3.80;;;17.60;99.90;;;;;;5012360;28;20450;-69
2022/09/04 06:17:10;;;;;;;4.00;3.70;;;17.70;99.90;;;;;;5012793;28;20402;-69
2022/09/04 06:20:11;;;;;;;4.60;4.20;;;17.80;99.90;;;;;;5020875;28;20446;-69
2022/09/04 06:22:53;;;;;;;4.17;3.80;;;17.90;99.90;;;;;;5015572;28;20428;-70
2022/09/04 06:25:37;;;;;;;3.53;3.23;;;18.00;99.90;;;;;;5016023;28;20872;-70
2022/09/04 06:28:27;;;;;;;4.97;4.47;;;18.00;99.90;;;;;;5015405;28;20923;-70
2022/09/04 06:31:05;;;;;;;4.17;3.80;;;18.10;99.90;;;;;;5018182;28;20450;-69
2022/09/04 06:33:51;;;;;;;3.83;3.30;;;18.20;99.90;;;;;;5035050;28;20426;-69
2022/09/04 06:36:30;;;;;;;4.70;4.20;;;18.30;99.90;;;;;;5035288;28;20796;-69
2022/09/04 06:39:14;;;;;;;4.57;4.27;;;18.40;99.90;;;;;;5034804;28;20428;-69
2022/09/04 06:42:00;;;;;;;4.07;3.77;;;18.50;99.90;;;;;;5034940;28;20440;-67
2022/09/04 06:44:44;;;;;;;4.40;4.03;;;18.60;99.90;;;;;;5035046;28;20410;-69
2022/09/04 06:47:10;;;;;;;5.20;4.33;;;18.70;99.90;;;;;;5034469;28;20792;-68
2022/09/04 06:49:57;;;;;;;4.70;4.30;;;18.80;99.90;;;;;;5034725;28;20481;-69
2022/09/04 06:52:37;;;;;;;4.27;3.83;;;18.90;99.90;;;;;;5033837;28;20203;-69
2022/09/04 06:55:24;;;;;;;3.77;3.47;;;19.00;99.90;;;;;;5034931;28;20836;-68
2022/09/04 06:58:04;;;;;;;4.10;3.80;;;19.20;99.90;;;;;;5035197;28;20490;-68
2022/09/04 07:00:39;;;;;;;6.10;4.07;;;19.30;99.90;;;;;;5033929;28;20812;-69
2022/09/04 07:03:49;;;;;;;3.73;3.23;;;19.40;99.90;;;;;;5035640;28;20425;-69
2022/09/04 07:06:25;;;;;;;4.33;4.03;;;19.60;99.90;;;;;;5034781;28;20422;-69
2022/09/04 07:08:55;;;;;;;4.20;3.27;;;19.70;99.90;;;;;;5034928;28;20851;-69
2022/09/04 07:11:57;;;;;;;3.30;3.10;;;19.80;99.90;;;;;;5034663;28;20441;-69
2022/09/04 07:14:54;;;;;;;3.77;3.47;;;19.90;99.90;;;;;;5035003;28;20389;-69
2022/09/04 07:18:02;;;;;;;4.50;3.30;;;20.10;99.90;;;;;;5029899;28;20418;-68
2022/09/04 07:21:05;;;;;;;3.20;2.87;;;20.20;99.90;;;;;;5011545;28;20484;-69
2022/09/04 07:23:51;;;;;;;4.07;3.67;;;20.40;99.90;;;;;;4973453;28;20440;-70
2022/09/04 07:26:36;;;;;;;3.67;3.37;;;20.50;99.90;;;;;;5031476;28;20414;-70
2022/09/04 07:29:23;;;;;;;3.37;3.17;;;20.60;99.90;;;;;;5032982;28;20421;-70
2022/09/04 07:32:16;;;;;;;4.00;3.40;;;20.70;99.90;;;;;;5033767;28;20562;-69
2022/09/04 07:34:59;;;;;;;4.30;3.90;;;20.80;99.90;;;;;;5034643;28;20848;-70
2022/09/04 07:37:57;;;;;;;3.63;3.33;;;20.90;99.90;;;;;;5033875;28;20747;-70
2022/09/04 07:40:31;;;;;;;5.20;3.50;;;21.00;99.90;;;;;;5034497;28;20402;-69
2022/09/04 07:43:24;;;;;;;4.60;4.20;;;21.00;99.90;;;;;;5033737;28;20419;-70
2022/09/04 07:46:04;;;;;;;3.67;3.37;;;21.10;99.90;;;;;;5034275;28;20394;-69
2022/09/04 07:48:36;;;;;;;4.23;3.40;;;21.20;99.90;;;;;;5033001;28;20414;-69
2022/09/04 07:51:27;;;;;;;3.30;3.10;;;21.30;99.90;;;;;;5034121;28;20533;-69
2022/09/04 07:54:11;;;;;;;4.20;3.80;;;21.40;99.90;;;;;;5035871;28;20395;-70
2022/09/04 07:56:58;;;;;;;3.67;3.37;;;21.50;99.90;;;;;;5033691;28;20424;-69
2022/09/04 07:59:37;;;;;;;3.63;3.33;;;21.50;99.90;;;;;;5033882;28;20887;-69
2022/09/04 08:02:18;;;;;;;3.87;3.47;;;21.60;99.90;;;;;;5034204;28;20422;-69
2022/09/04 08:05:08;;;;;;;4.23;3.50;;;21.70;99.90;;;;;;5033906;28;20382;-69
2022/09/04 08:07:36;;;;;;;3.50;3.20;;;21.80;99.90;;;;;;5033838;28;20390;-70
2022/09/04 08:10:24;;;;;;;4.50;3.30;;;22.00;99.90;;;;;;5033815;28;20394;-69
2022/09/04 08:13:02;;;;;;;3.17;2.87;;;22.10;99.90;;;;;;5033777;28;20437;-69
2022/09/04 08:15:41;;;;;;;3.40;3.10;;;22.30;99.90;;;;;;5034352;28;20405;-70
2022/09/04 08:18:12;;;;;;;3.47;3.17;;;22.10;99.90;;;;;;5033719;28;20433;-67
2022/09/04 08:20:44;;;;;;;3.83;3.37;;;22.10;99.90;;;;;;5034375;28;20383;-68
2022/09/04 08:23:41;;;;;;;2.70;2.47;;;22.10;99.90;;;;;;5033816;28;20437;-69
2022/09/04 08:26:28;;;;;;;2.87;2.67;;;21.70;99.90;;;;;;5034523;28;20383;-70
2022/09/04 08:29:17;;;;;;;2.60;2.40;;;21.90;99.90;;;;;;5033502;28;20398;-71
2022/09/04 08:32:21;;;;;;;2.47;2.27;;;22.20;99.90;;;;;;5033804;28;20591;-69
2022/09/04 08:34:59;;;;;;;3.00;2.80;;;22.10;99.90;;;;;;5011407;28;20410;-69
2022/09/04 08:37:34;;;;;;;3.77;2.20;;;22.20;99.90;;;;;;5033900;28;20394;-70
2022/09/04 08:40:36;;;;;;;3.33;2.40;;;22.40;99.90;;;;;;5033219;28;20386;-69
2022/09/04 08:43:26;;;;;;;3.03;2.83;;;22.60;99.90;;;;;;5032750;28;20422;-69
2022/09/04 08:46:28;;;;;;;3.10;2.80;;;22.70;99.90;;;;;;5032731;28;20405;-70
2022/09/04 08:49:09;;;;;;;3.60;2.80;;;22.80;99.90;;;;;;5029613;28;20414;-70
2022/09/04 08:51:46;;;;;;;3.13;2.73;;;22.90;99.90;;;;;;5032236;28;20484;-70
2022/09/04 08:54:27;;;;;;;3.20;3.00;;;22.90;99.90;;;;;;5032960;28;20882;-69
2022/09/04 08:57:28;;;;;;;2.70;2.43;;;22.80;99.90;;;;;;5032696;28;20378;-69
2022/09/04 09:00:11;;;;;;;2.60;2.40;;;22.80;99.90;;;;;;5026026;28;20421;-70
2022/09/04 09:03:00;;;;;;;3.77;2.77;;;22.60;99.90;;;;;;5032551;28;20437;-69
2022/09/04 09:05:35;;;;;;;2.47;2.27;;;22.70;99.90;;;;;;5033031;28;20383;-70
2022/09/04 09:08:19;;;;;;;2.77;2.57;;;23.00;99.90;;;;;;5032732;28;20408;-70
2022/09/04 09:11:23;;;;;;;3.57;2.73;;;23.20;99.90;;;;;;5031633;28;20453;-72
2022/09/04 09:14:10;;;;;;;2.70;2.50;;;22.90;99.90;;;;;;5021582;28;20935;-69
2022/09/04 09:16:42;;;;;;;2.80;2.60;;;23.00;99.90;;;;;;5011921;28;20846;-70
2022/09/04 09:19:21;;;;;;;2.77;2.57;;;23.20;99.90;;;;;;5012694;28;20398;-69
2022/09/04 09:22:15;;;;;;;2.73;2.53;;;23.20;99.90;;;;;;5010811;28;20438;-69
2022/09/04 09:24:56;;;;;;;3.23;2.93;;;23.20;99.90;;;;;;5012869;28;20749;-69
2022/09/04 09:27:45;;;;;;;2.73;2.50;;;23.50;99.90;;;;;;5012275;28;20899;-69
2022/09/04 09:30:19;;;;;;;3.63;2.20;;;23.70;99.90;;;;;;5017029;28;20503;-70
2022/09/04 09:33:15;;;;;;;3.27;3.00;;;24.10;99.90;;;;;;5032140;28;20450;-70
2022/09/04 09:36:05;;;;;;;3.00;2.73;;;24.50;99.90;;;;;;5032717;28;20383;-68
2022/09/04 09:38:44;;;;;;;2.60;2.40;;;24.20;99.90;;;;;;5032059;28;20393;-68
2022/09/04 09:41:52;;;;;;;4.63;2.17;;;24.10;99.90;;;;;;5032375;28;20440;-69
2022/09/04 09:44:55;;;;;;;3.07;2.70;;;24.40;99.90;;;;;;5031052;28;20918;-69
2022/09/04 09:47:41;;;;;;;2.53;2.33;;;24.10;99.90;;;;;;5031783;28;20401;-69
2022/09/04 09:50:13;;;;;;;2.63;2.43;;;24.00;99.90;;;;;;5029808;28;20476;-68
2022/09/04 09:53:11;;;;;;;2.57;2.37;;;24.20;99.90;;;;;;5031010;28;20453;-69
2022/09/04 09:55:51;;;;;;;2.30;2.10;;;24.30;99.90;;;;;;5032285;28;20386;-68
2022/09/04 09:58:40;;;;;;;2.20;2.00;;;23.90;99.90;;;;;;5031969;28;20378;-69
2022/09/04 10:01:29;;;;;;;2.00;1.90;;;23.90;99.90;;;;;;5032406;28;20425;-69
2022/09/04 10:04:32;;;;;;;2.00;1.80;;;24.00;99.90;;;;;;5032407;28;20417;-69
2022/09/04 10:07:41;;;;;;;2.10;2.00;;;24.30;99.90;;;;;;5032363;28;20398;-69
2022/09/04 10:10:28;;;;;;;2.43;2.23;;;24.30;99.90;;;;;;5032394;28;20409;-69
2022/09/04 10:13:28;;;;;;;4.03;1.90;;;24.50;99.90;;;;;;5032225;28;20795;-69
2022/09/04 10:16:06;;;;;;;3.00;2.23;;;24.80;99.90;;;;;;4996912;28;20513;-70
2022/09/04 10:18:43;;;;;;;2.17;2.07;;;25.00;99.90;;;;;;5032802;28;20388;-69
2022/09/04 10:21:19;;;;;;;1.70;1.60;;;25.00;99.90;;;;;;5024543;28;20424;-70
2022/09/04 10:23:47;;;;;;;1.90;1.80;;;25.10;99.90;;;;;;5032327;28;20489;-68
2022/09/04 10:26:42;;;;;;;2.37;1.50;;;24.90;99.90;;;;;;5032316;28;20417;-70
2022/09/04 10:29:32;;;;;;;1.63;1.53;;;24.50;99.90;;;;;;5002398;28;20865;-69
2022/09/04 10:32:28;;;;;;;1.97;1.37;;;24.30;99.90;;;;;;5012878;28;20482;-68
2022/09/04 10:35:08;;;;;;;3.03;1.90;;;24.10;99.90;;;;;;5011912;28;20411;-70
2022/09/04 10:37:39;;;;;;;2.40;1.70;;;24.20;99.90;;;;;;5017647;28;20842;-71
2022/09/04 10:40:37;;;;;;;4.00;1.70;;;24.30;99.90;;;;;;5021537;28;20421;-70
2022/09/04 10:43:15;;;;;;;2.57;1.77;;;24.70;99.90;;;;;;5031150;28;20442;-70
2022/09/04 10:45:56;;;;;;;3.00;1.87;;;25.70;99.90;;;;;;5031887;28;20414;-67
2022/09/04 10:48:47;;;;;;;1.70;1.33;;;26.80;99.90;;;;;;5030321;28;20425;-69
2022/09/04 10:51:33;;;;;;;1.80;1.70;;;27.90;98.90;;;;;;5031467;28;20476;-68
2022/09/04 10:54:17;;;;;;;1.70;1.60;;;29.50;97.00;;;;;;5031871;28;20402;-69
2022/09/04 10:57:05;;;;;;;2.33;1.70;;;31.40;94.30;;;;;;5031374;28;20390;-69
2022/09/04 11:00:15;;;;;;;2.17;1.30;;;30.60;92.00;;;;;;5030336;28;20418;-69
2022/09/04 11:03:01;;;;;;;1.83;1.73;;;30.00;93.40;;;;;;5027695;28;20499;-69
2022/09/04 11:05:52;;;;;;;2.47;1.60;;;29.00;96.30;;;;;;5035410;28;20768;-69
2022/09/04 11:08:34;;;;;;;2.60;1.50;;;29.80;94.20;;;;;;5035593;28;20884;-69
2022/09/04 11:11:03;;;;;;;1.87;1.30;;;29.90;93.10;;;;;;5035053;28;20899;-70
2022/09/04 11:13:55;;;;;;;2.40;1.43;;;31.10;92.40;;;;;;5034801;28;20430;-70
2022/09/04 11:16:40;;;;;;;3.53;1.60;;;31.90;88.80;;;;;;5034742;28;20452;-69
2022/09/04 11:19:09;;;;;;;3.20;2.00;;;31.40;88.60;;;;;;5034724;28;20391;-68
2022/09/04 11:21:43;;;;;;;1.60;1.50;;;33.00;86.50;;;;;;5034645;28;20448;-69
2022/09/04 11:24:40;;;;;;;1.70;1.30;;;33.60;78.50;;;;;;5034917;28;20409;-69
2022/09/04 11:27:28;;;;;;;1.57;1.47;;;34.90;73.10;;;;;;5035059;28;20604;-70
2022/09/04 11:30:08;;;;;;;3.03;1.50;;;34.50;71.30;;;;;;5013933;28;20391;-71
2022/09/04 11:32:57;;;;;;;1.50;1.27;;;32.10;76.00;;;;;;5012909;28;20458;-71
2022/09/04 11:35:38;;;;;;;2.07;1.40;;;31.00;80.90;;;;;;5011564;28;20445;-71
2022/09/04 11:38:12;;;;;;;1.70;1.30;;;31.90;79.10;;;;;;5013105;28;20395;-72
2022/09/04 11:41:14;;;;;;;3.43;1.63;;;31.20;77.90;;;;;;5014230;28;20927;-71
2022/09/04 11:44:03;;;;;;;1.40;1.30;;;31.40;77.40;;;;;;5019577;28;20402;-70
2022/09/04 11:47:05;;;;;;;1.50;1.40;;;33.50;72.10;;;;;;5034029;28;20390;-70
2022/09/04 11:50:15;;;;;;;1.70;1.40;;;31.80;73.40;;;;;;5034453;28;20702;-70
2022/09/04 11:53:11;;;;;;;1.80;1.43;;;30.10;80.00;;;;;;5031932;28;21056;-71
2022/09/04 11:55:42;;;;;;;3.03;1.37;;;29.00;83.40;;;;;;5033849;28;20743;-71
2022/09/04 11:58:13;;;;;;;2.43;1.77;;;28.50;85.50;;;;;;5033854;28;20413;-69
2022/09/04 12:00:57;;;;;;;1.57;1.47;;;28.30;86.60;;;;;;5033716;28;20426;-70
2022/09/04 12:03:58;;;;;;;1.63;1.50;;;27.80;88.90;;;;;;5033686;28;20962;-70
2022/09/04 12:07:07;;;;;;;2.57;1.90;;;27.60;89.70;;;;;;4972811;28;20511;-70
2022/09/04 12:09:39;;;;;;;1.77;1.20;;;27.60;91.30;;;;;;5033767;28;20417;-69
2022/09/04 12:12:38;;;;;;;2.07;1.73;;;27.70;90.90;;;;;;5031846;28;20862;-69
2022/09/04 12:15:15;;;;;;;1.60;1.50;;;27.60;90.40;;;;;;5033925;28;20731;-69
2022/09/04 12:18:01;;;;;;;3.30;1.60;;;27.70;91.00;;;;;;5033888;28;20441;-69
2022/09/04 12:20:48;;;;;;;2.03;1.50;;;27.60;90.80;;;;;;5034469;28;20879;-70
2022/09/04 12:23:43;;;;;;;2.40;1.57;;;27.60;90.50;;;;;;5034727;28;20875;-70
2022/09/04 12:26:27;;;;;;;1.93;1.73;;;27.60;89.80;;;;;;5032989;28;20390;-70
2022/09/04 12:29:08;;;;;;;2.90;1.60;;;28.50;87.20;;;;;;5034234;28;20406;-70
2022/09/04 12:32:05;;;;;;;1.40;1.20;;;28.70;87.00;;;;;;5033133;28;20450;-68
2022/09/04 12:35:08;;;;;;;1.40;1.30;;;28.70;87.10;;;;;;5033259;28;20397;-68
2022/09/04 12:38:01;;;;;;;1.40;1.30;;;29.30;86.40;;;;;;5033403;28;20893;-69
2022/09/04 12:40:29;;;;;;;1.60;1.50;;;31.60;77.40;;;;;;5033137;28;20383;-69
2022/09/04 12:43:03;;;;;;;1.40;1.30;;;33.50;72.40;;;;;;5032567;28;20540;-68
2022/09/04 12:45:39;;;;;;;1.93;1.20;;;33.90;68.20;;;;;;5034506;28;20382;-69
2022/09/04 12:48:32;;;;;;;1.30;1.20;;;32.10;71.60;;;;;;5031869;28;20414;-69
2022/09/04 12:51:11;;;;;;;1.37;1.27;;;32.10;70.20;;;;;;5033428;28;20445;-69
2022/09/04 12:54:02;;;;;;;1.97;1.20;;;31.40;74.40;;;;;;5032059;28;20402;-70
2022/09/04 12:56:44;;;;;;;1.50;1.40;;;31.40;73.20;;;;;;5033215;28;20370;-69
2022/09/04 12:59:30;;;;;;;2.30;1.60;;;32.50;73.40;;;;;;5033804;28;20756;-69
2022/09/04 13:02:17;;;;;;;2.30;1.40;;;33.50;67.50;;;;;;5033058;28;20414;-69
2022/09/04 13:05:26;;;;;;;2.13;1.33;;;34.80;63.80;;;;;;5033009;28;20418;-69
2022/09/04 13:08:02;;;;;;;1.67;1.40;;;35.80;61.90;;;;;;5032984;28;20878;-69
2022/09/04 13:10:45;;;;;;;1.63;1.30;;;34.80;61.80;;;;;;5032670;28;20391;-69
2022/09/04 13:13:41;;;;;;;1.20;1.03;;;34.30;63.30;;;;;;5033016;28;20972;-69
2022/09/04 13:16:12;;;;;;;1.50;1.20;;;35.10;62.50;;;;;;5032593;28;20390;-69
2022/09/04 13:18:58;;;;;;;2.13;1.37;;;35.40;59.80;;;;;;5032902;28;20398;-69
2022/09/04 13:21:50;;;;;;;1.80;1.43;;;35.00;61.10;;;;;;5032876;28;20429;-70
2022/09/04 13:24:40;;;;;;;1.70;1.40;;;34.10;63.50;;;;;;5032378;28;20776;-70
2022/09/04 13:27:42;;;;;;;1.43;1.33;;;33.00;65.30;;;;;;5032278;28;20410;-69
2022/09/04 13:30:23;;;;;;;1.50;1.40;;;31.90;66.70;;;;;;5029803;28;20418;-69
2022/09/04 13:33:12;;;;;;;1.93;1.47;;;31.30;68.60;;;;;;5023288;28;20913;-68
2022/09/04 13:36:05;;;;;;;1.80;1.20;;;30.60;69.80;;;;;;5032507;28;20367;-68
2022/09/04 13:38:54;;;;;;;2.00;1.87;;;29.40;72.80;;;;;;5031463;28;20386;-69
2022/09/04 13:41:19;;;;;;;2.20;2.00;;;28.50;75.40;;;;;;5012738;28;20410;-69
2022/09/04 13:44:22;;;;;;;2.50;1.43;;;28.80;77.00;;;;;;5032426;28;20398;-69
2022/09/04 13:47:07;;;;;;;1.40;1.30;;;28.80;76.20;;;;;;5032802;28;20163;-69
2022/09/04 13:49:43;;;;;;;2.50;1.50;;;29.10;81.70;;;;;;5032118;28;20864;-69
2022/09/04 13:52:15;;;;;;;1.80;1.43;;;30.80;78.70;;;;;;5047832;22;20469;-69
2022/09/04 13:55:22;;;;;;;1.70;1.40;;;33.00;72.40;;;;;;5032345;28;20430;-70
2022/09/04 13:58:09;;;;;;;1.57;1.40;;;34.60;63.60;;;;;;5033440;28;20413;-70
2022/09/04 14:00:43;;;;;;;1.50;1.20;;;34.10;62.10;;;;;;5033900;28;20378;-70
2022/09/04 14:03:16;;;;;;;1.50;1.40;;;32.20;66.70;;;;;;5044289;28;20797;-69
2022/09/04 14:05:42;;;;;;;2.40;1.33;;;31.30;70.30;;;;;;5053222;28;20414;-69
2022/09/04 14:08:16;;;;;;;1.63;1.40;;;30.10;70.30;;;;;;5053344;28;20409;-69
2022/09/04 14:11:19;;;;;;;1.50;1.37;;;29.30;72.90;;;;;;5052705;28;20815;-69
2022/09/04 14:14:02;;;;;;;5.90;5.40;;;29.50;75.00;;;;;;5052729;28;20428;-70
2022/09/04 14:16:35;;;;;;;1.47;1.37;;;29.60;79.40;;;;;;5053088;28;20423;-69
2022/09/04 14:19:12;;;;;;;1.30;1.20;;;29.60;78.00;;;;;;5053007;28;20386;-69
2022/09/04 14:22:01;;;;;;;1.57;1.40;;;29.40;76.10;;;;;;5052768;28;20381;-69
2022/09/04 14:24:45;;;;;;;2.60;1.60;;;29.50;75.80;;;;;;5052758;28;20409;-70
2022/09/04 14:27:32;;;;;;;1.97;1.47;;;29.40;77.70;;;;;;5053098;28;20385;-70
2022/09/04 14:30:07;;;;;;;2.13;1.50;;;29.30;80.10;;;;;;5052578;28;20401;-70